Time;durP1;ratioP1;P1;durP2;ratioP2;P2;SDS_P1;SDS_P2;PMS_P1;PMS_P2;Temp;Humidity;BMP_temperature;BMP_pressure;BME280_temperature;BME280_humidity;BME280_pressure;Samples;Min_cycle;Max_cycle;Signal;HPM_P1;HPM_P2
2022/01/20 00:02:08;;;;;;;6.13;5.13;;;5.30;1.00;;;;;;5071806;28;20422;-59
2022/01/20 00:04:45;;;;;;;7.53;5.00;;;5.40;1.00;;;;;;5075704;28;20449;-59
2022/01/20 00:23:08;;;;;;;5.30;4.43;;;5.40;1.00;;;;;;5075563;28;20447;-59
2022/01/20 00:26:17;;;;;;;4.93;4.43;;;5.50;1.00;;;;;;5021540;28;20469;-57
2022/01/20 00:31:37;;;;;;;6.00;5.03;;;5.30;1.00;;;;;;5073948;28;20415;-59
2022/01/20 00:39:18;;;;;;;6.00;4.93;;;5.20;1.00;;;;;;5076265;28;20418;-58
2022/01/20 00:41:44;;;;;;;5.93;5.30;;;5.10;1.00;;;;;;5080756;28;20449;-59
2022/01/20 00:44:09;;;;;;;6.83;5.80;;;5.20;1.00;;;;;;5077465;28;20430;-58
2022/01/20 00:46:35;;;;;;;5.93;5.33;;;5.30;1.00;;;;;;5082755;28;20202;-60
2022/01/20 00:49:00;;;;;;;7.00;5.37;;;5.30;1.00;;;;;;5087029;28;20672;-59
2022/01/20 00:51:26;;;;;;;5.30;4.80;;;5.30;1.00;;;;;;5094165;28;20181;-59
2022/01/20 00:53:52;;;;;;;5.43;4.73;;;5.40;1.00;;;;;;5078097;28;20176;-59
2022/01/20 00:56:17;;;;;;;4.90;4.40;;;5.40;1.00;;;;;;5081217;28;20310;-58
2022/01/20 00:58:43;;;;;;;4.50;4.00;;;5.30;1.00;;;;;;5083218;28;20187;-60
2022/01/20 01:01:08;;;;;;;5.47;4.93;;;5.40;1.00;;;;;;5075624;28;20528;-59
2022/01/20 01:03:34;;;;;;;5.23;4.13;;;5.40;1.00;;;;;;5082571;28;20187;-58
2022/01/20 01:06:34;;;;;;;6.20;4.50;;;5.30;1.00;;;;;;5079844;28;20203;-58
2022/01/20 01:08:45;;;;;;;5.20;4.30;;;5.30;1.00;;;;;;5084772;28;20195;-57
2022/01/20 01:11:11;;;;;;;4.77;4.33;;;5.30;1.00;;;;;;5081040;28;20448;-57
2022/01/20 01:13:37;;;;;;;5.37;4.37;;;5.30;1.00;;;;;;5074213;28;20187;-58
2022/01/20 01:16:04;;;;;;;4.60;3.67;;;5.40;1.00;;;;;;5076964;28;20953;-58
2022/01/20 01:21:27;;;;;;;4.63;3.80;;;5.40;1.00;;;;;;5075009;28;20453;-57
2022/01/20 01:23:53;;;;;;;5.47;4.00;;;5.40;1.00;;;;;;5074407;28;20446;-59
2022/01/20 01:26:20;;;;;;;4.57;4.17;;;5.50;1.00;;;;;;5080486;28;20475;-59
2022/01/20 01:28:47;;;;;;;4.07;3.77;;;5.50;1.00;;;;;;5074348;28;20644;-60
2022/01/20 01:33:54;;;;;;;5.00;3.87;;;5.50;1.00;;;;;;5080090;28;20438;-57
2022/01/20 01:36:22;;;;;;;4.60;4.20;;;5.50;1.00;;;;;;5083104;28;20437;-60
2022/01/20 01:38:48;;;;;;;4.30;3.67;;;5.50;1.00;;;;;;5056462;28;20454;-58
2022/01/20 01:41:19;;;;;;;4.73;3.77;;;5.60;1.00;;;;;;5081245;28;20449;-59
2022/01/20 01:43:48;;;;;;;4.97;4.43;;;5.50;1.00;;;;;;5077870;28;20445;-59
2022/01/20 01:46:15;;;;;;;4.23;3.10;;;5.50;1.00;;;;;;5081319;28;20460;-58
2022/01/20 01:48:43;;;;;;;4.60;3.93;;;5.50;1.00;;;;;;5084547;28;20944;-59
2022/01/20 01:51:10;;;;;;;4.37;3.30;;;5.50;1.00;;;;;;5079795;28;20464;-58
2022/01/20 01:53:37;;;;;;;5.93;4.03;;;5.50;1.00;;;;;;5082810;28;20444;-59
2022/01/20 01:56:04;;;;;;;6.07;4.57;;;5.40;1.00;;;;;;5081099;28;20721;-59
2022/01/20 01:58:30;;;;;;;5.10;4.17;;;5.40;1.00;;;;;;5077919;28;20482;-58
2022/01/20 02:00:56;;;;;;;4.97;3.80;;;5.50;1.00;;;;;;5078365;28;20448;-59
2022/01/20 02:03:24;;;;;;;4.83;3.27;;;5.50;1.00;;;;;;5082099;28;20549;-60
2022/01/20 02:06:13;;;;;;;5.90;4.00;;;5.60;1.00;;;;;;5079268;28;20534;-59
2022/01/20 02:08:55;;;;;;;5.30;3.73;;;5.60;1.00;;;;;;5081940;28;22016;-59
2022/01/20 02:19:33;;;;;;;10.20;3.10;;;5.60;1.00;;;;;;5076091;28;20492;-58
2022/01/20 02:22:02;;;;;;;8.47;3.40;;;5.60;1.00;;;;;;5078478;28;20862;-59
2022/01/20 02:24:31;;;;;;;6.40;3.10;;;5.70;1.00;;;;;;5074677;28;20232;-58
2022/01/20 02:26:58;;;;;;;12.83;3.40;;;5.80;1.00;;;;;;5078888;28;20469;-59
2022/01/20 02:29:24;;;;;;;6.60;3.33;;;;;;;;;;5076047;28;20436;-59
2022/01/20 02:31:54;;;;;;;6.50;3.37;;;5.60;1.00;;;;;;5077314;28;20498;-59
2022/01/20 02:34:21;;;;;;;5.20;2.20;;;5.60;1.00;;;;;;5080672;28;20902;-59
2022/01/20 02:36:47;;;;;;;4.83;2.20;;;5.60;1.00;;;;;;5073764;28;20799;-58
2022/01/20 02:44:56;;;;;;;5.10;2.53;;;5.70;1.00;;;;;;5072872;28;20496;-58
2022/01/20 02:47:27;;;;;;;11.87;3.60;;;5.70;1.00;;;;;;5076181;28;20477;-59
2022/01/20 02:49:54;;;;;;;12.73;3.00;;;5.70;1.00;;;;;;5073161;28;20450;-58
2022/01/20 02:52:23;;;;;;;3.90;2.07;;;5.70;1.00;;;;;;5054846;28;20787;-58
2022/01/20 02:54:50;;;;;;;9.13;3.87;;;5.70;1.00;;;;;;5084519;28;20979;-57
2022/01/20 02:57:16;;;;;;;9.33;2.20;;;5.80;1.00;;;;;;5071575;28;20902;-60
2022/01/20 02:59:42;;;;;;;6.13;2.50;;;5.90;1.00;;;;;;5078241;28;20448;-60
2022/01/20 03:02:09;;;;;;;6.87;2.50;;;5.80;1.00;;;;;;5088367;28;20498;-59
2022/01/20 03:04:35;;;;;;;7.17;2.00;;;5.60;1.00;;;;;;5077890;28;20255;-60
2022/01/20 03:07:01;;;;;;;11.17;3.27;;;5.60;1.00;;;;;;5074850;28;20819;-59
2022/01/20 03:09:27;;;;;;;8.00;2.30;;;5.60;1.00;;;;;;5079737;28;20468;-58
2022/01/20 03:11:53;;;;;;;7.00;3.47;;;5.60;1.00;;;;;;5073549;28;20483;-59
2022/01/20 03:14:18;;;;;;;16.37;3.83;;;5.40;1.00;;;;;;5074267;28;20626;-58
2022/01/20 03:16:45;;;;;;;7.70;2.97;;;5.40;1.00;;;;;;5070901;28;20203;-59
2022/01/20 03:19:11;;;;;;;11.83;2.53;;;5.40;1.00;;;;;;5081280;28;20195;-59
2022/01/20 03:21:37;;;;;;;8.43;2.00;;;5.40;1.00;;;;;;5058739;28;20448;-59
2022/01/20 03:24:04;;;;;;;11.47;2.37;;;5.30;1.00;;;;;;5074039;28;20535;-59
2022/01/20 03:26:29;;;;;;;14.07;3.40;;;5.10;1.00;;;;;;5075597;28;21018;-59
2022/01/20 03:28:57;;;;;;;8.80;2.37;;;5.10;1.00;;;;;;5074892;28;20441;-57
2022/01/20 03:31:22;;;;;;;4.87;1.40;;;5.10;1.00;;;;;;5070904;28;20182;-59
2022/01/20 03:33:48;;;;;;;7.83;2.53;;;5.00;1.00;;;;;;5071482;28;20450;-59
2022/01/20 03:36:13;;;;;;;7.70;2.20;;;4.90;1.00;;;;;;5072644;28;20195;-59
2022/01/20 03:38:39;;;;;;;10.40;3.23;;;;;;;;;;5054487;28;20208;-60
2022/01/20 03:41:05;;;;;;;6.77;2.60;;;4.90;1.00;;;;;;5072419;28;20181;-60
2022/01/20 03:43:30;;;;;;;8.50;1.80;;;4.80;1.00;;;;;;5058691;28;20446;-59
2022/01/20 03:45:56;;;;;;;9.87;2.30;;;4.90;1.00;;;;;;5070321;28;20208;-57
2022/01/20 03:48:24;;;;;;;15.93;3.03;;;4.90;1.00;;;;;;5076358;28;20191;-59
2022/01/20 03:50:59;;;;;;;12.33;2.80;;;;;;;;;;5074336;28;20417;-60
2022/01/20 03:53:26;;;;;;;9.40;4.23;;;4.80;1.00;;;;;;5074206;28;20445;-59
2022/01/20 03:55:51;;;;;;;6.83;2.30;;;4.80;1.00;;;;;;5072284;28;20448;-59
2022/01/20 03:58:17;;;;;;;9.23;2.23;;;4.80;1.00;;;;;;5078091;28;22095;-59
2022/01/20 04:00:45;;;;;;;9.47;1.83;;;4.70;1.00;;;;;;5074844;28;20199;-60
2022/01/20 04:03:12;;;;;;;7.03;1.93;;;4.70;1.00;;;;;;5075187;28;20655;-60
2022/01/20 04:05:46;;;;;;;7.67;1.60;;;4.70;1.00;;;;;;5061731;28;20471;-60
2022/01/20 04:08:12;;;;;;;5.60;1.83;;;4.80;1.00;;;;;;5077570;28;20586;-59
2022/01/20 04:10:38;;;;;;;10.97;1.77;;;4.70;1.00;;;;;;5077921;28;20533;-57
2022/01/20 04:13:03;;;;;;;9.80;2.10;;;4.70;1.00;;;;;;5074313;28;20190;-58
2022/01/20 04:15:37;;;;;;;6.50;2.20;;;4.70;1.00;;;;;;5072598;28;20197;-60
2022/01/20 04:18:05;;;;;;;9.80;2.10;;;4.60;1.00;;;;;;5074860;28;20665;-59
2022/01/20 04:20:31;;;;;;;6.00;2.60;;;4.60;1.00;;;;;;5075987;28;20438;-59
2022/01/20 04:22:56;;;;;;;6.10;1.63;;;4.50;1.00;;;;;;5073655;28;20824;-60
2022/01/20 04:25:22;;;;;;;4.03;1.57;;;4.60;1.00;;;;;;5079339;28;20223;-59
2022/01/20 04:27:47;;;;;;;9.27;3.17;;;4.60;1.00;;;;;;5076158;28;20188;-58
2022/01/20 04:30:13;;;;;;;5.10;2.20;;;4.60;1.00;;;;;;5076801;28;20183;-59
2022/01/20 04:32:38;;;;;;;4.50;1.83;;;4.50;1.00;;;;;;5082670;28;20439;-60
2022/01/20 04:35:04;;;;;;;10.90;2.23;;;4.70;1.00;;;;;;5079131;28;20182;-60
2022/01/20 04:37:30;;;;;;;5.20;1.87;;;4.70;1.00;;;;;;5059196;28;20185;-60
2022/01/20 04:39:56;;;;;;;6.63;1.67;;;4.60;1.00;;;;;;5074615;28;20183;-58
2022/01/20 04:42:24;;;;;;;7.57;2.20;;;4.60;1.00;;;;;;5080733;28;20233;-58
2022/01/20 04:44:56;;;;;;;16.33;2.10;;;4.60;1.00;;;;;;5081945;28;20954;-59
2022/01/20 04:47:32;;;;;;;7.10;1.90;;;4.60;1.00;;;;;;5076018;28;20495;-59
2022/01/20 04:58:11;;;;;;;5.07;1.60;;;;;;;;;;5076313;28;20438;-59
2022/01/20 05:00:37;;;;;;;4.90;1.13;;;4.80;1.00;;;;;;5079464;28;20457;-59
2022/01/20 05:03:04;;;;;;;11.67;2.47;;;4.80;1.00;;;;;;5088083;28;20451;-61
2022/01/20 05:05:31;;;;;;;8.00;2.33;;;4.90;1.00;;;;;;5077622;28;20212;-60
2022/01/20 05:07:58;;;;;;;12.67;2.03;;;4.80;1.00;;;;;;5078952;28;20455;-60
2022/01/20 05:10:23;;;;;;;7.50;1.90;;;4.90;1.00;;;;;;5073137;28;20433;-60
2022/01/20 05:15:21;;;;;;;10.07;1.53;;;4.80;1.00;;;;;;5076150;28;20187;-60
2022/01/20 05:17:47;;;;;;;8.73;2.23;;;;;;;;;;5074065;28;20477;-60
2022/01/20 05:20:13;;;;;;;9.87;3.17;;;4.90;1.00;;;;;;5072835;28;20476;-61
2022/01/20 05:22:39;;;;;;;8.53;1.73;;;4.90;1.00;;;;;;5074534;28;20472;-60
2022/01/20 05:25:05;;;;;;;7.40;1.73;;;5.00;1.00;;;;;;5077750;28;20865;-55
2022/01/20 05:27:32;;;;;;;8.30;2.30;;;5.00;1.00;;;;;;5077228;28;20711;-60
2022/01/20 05:29:58;;;;;;;8.27;2.30;;;5.10;1.00;;;;;;5078851;28;20440;-59
2022/01/20 05:36:27;;;;;;;8.30;2.50;;;5.20;1.00;;;;;;4978906;28;20575;-60
2022/01/20 05:38:53;;;;;;;9.63;2.23;;;5.00;1.00;;;;;;4968697;28;20468;-60
2022/01/20 05:41:18;;;;;;;6.50;2.83;;;5.00;1.00;;;;;;5046772;28;20482;-60
2022/01/20 05:43:45;;;;;;;12.97;3.27;;;5.10;1.00;;;;;;5074993;28;20263;-60
2022/01/20 05:46:11;;;;;;;9.03;2.27;;;5.10;1.00;;;;;;5060583;28;20596;-60
2022/01/20 05:48:36;;;;;;;11.53;2.50;;;5.00;1.00;;;;;;5073332;28;20447;-60
2022/01/20 05:51:06;;;;;;;5.53;2.30;;;5.00;1.00;;;;;;5071762;28;20494;-60
2022/01/20 05:53:32;;;;;;;8.50;3.07;;;5.00;1.00;;;;;;5055774;28;20448;-59
2022/01/20 05:55:58;;;;;;;12.63;2.23;;;4.90;1.00;;;;;;5075609;28;20509;-60
2022/01/20 05:58:24;;;;;;;7.70;2.20;;;5.00;1.00;;;;;;5070637;28;20522;-59
2022/01/20 06:00:50;;;;;;;8.33;2.30;;;5.00;1.00;;;;;;5072856;28;20823;-59
2022/01/20 06:06:00;;;;;;;9.50;2.80;;;5.10;1.00;;;;;;5071292;28;20925;-59
2022/01/20 06:08:26;;;;;;;7.73;2.60;;;5.10;1.00;;;;;;5072348;28;20446;-59
2022/01/20 06:10:52;;;;;;;10.43;2.07;;;5.20;1.00;;;;;;5071889;28;20587;-60
2022/01/20 06:13:18;;;;;;;8.40;3.27;;;5.30;1.00;;;;;;5067012;28;20688;-59
2022/01/20 06:15:44;;;;;;;13.00;1.87;;;5.30;1.00;;;;;;5071437;28;20909;-60
2022/01/20 06:18:10;;;;;;;8.70;2.23;;;;;;;;;;5072981;28;20282;-60
2022/01/20 06:20:37;;;;;;;8.37;2.37;;;;;;;;;;5072145;28;20867;-60
2022/01/20 06:23:08;;;;;;;6.30;1.80;;;5.10;1.00;;;;;;5071026;28;20600;-60
2022/01/20 06:25:34;;;;;;;10.57;2.77;;;;;;;;;;5072763;28;20510;-61
2022/01/20 06:28:00;;;;;;;10.03;2.43;;;;;;;;;;5070654;28;20466;-60
2022/01/20 06:30:25;;;;;;;5.17;2.60;;;5.10;1.00;;;;;;5072244;28;20441;-60
2022/01/20 06:32:52;;;;;;;6.93;2.60;;;5.00;1.00;;;;;;5070738;28;20616;-60
2022/01/20 06:35:18;;;;;;;7.80;1.90;;;;;;;;;;5071409;28;20300;-59
2022/01/20 06:37:44;;;;;;;9.00;2.90;;;;;;;;;;5071418;28;20450;-59
2022/01/20 06:40:10;;;;;;;5.77;2.40;;;4.50;1.00;;;;;;5072481;28;20481;-60
2022/01/20 06:42:37;;;;;;;9.23;2.60;;;4.20;1.00;;;;;;5071576;28;20935;-59
2022/01/20 06:45:07;;;;;;;10.80;2.67;;;4.20;1.00;;;;;;5070640;28;20445;-59
2022/01/20 06:47:34;;;;;;;10.37;2.77;;;;;;;;;;5077270;28;20466;-60
2022/01/20 06:50:00;;;;;;;10.90;3.00;;;4.20;1.00;;;;;;5086131;28;20437;-60
2022/01/20 06:52:26;;;;;;;11.50;3.77;;;4.30;1.00;;;;;;5069993;28;20508;-60
2022/01/20 06:54:51;;;;;;;10.57;2.40;;;4.30;1.00;;;;;;5070332;28;20443;-60
2022/01/20 06:57:17;;;;;;;6.53;2.30;;;4.40;1.00;;;;;;5056921;28;21074;-60
2022/01/20 06:59:43;;;;;;;4.47;1.97;;;4.40;1.00;;;;;;5070921;28;20580;-60
2022/01/20 07:02:08;;;;;;;12.00;2.73;;;4.30;1.00;;;;;;5072359;28;20543;-60
2022/01/20 07:04:34;;;;;;;5.47;2.50;;;4.30;1.00;;;;;;5070297;28;20656;-62
2022/01/20 07:07:00;;;;;;;12.17;2.63;;;;;;;;;;5071599;28;20197;-60
2022/01/20 07:09:26;;;;;;;6.97;2.37;;;4.30;1.00;;;;;;5070426;28;20180;-59
2022/01/20 07:11:52;;;;;;;18.73;4.53;;;;;;;;;;5070887;28;20452;-59
2022/01/20 07:14:17;;;;;;;8.70;2.70;;;;;;;;;;5069715;28;20182;-60
2022/01/20 07:16:43;;;;;;;12.80;2.60;;;4.20;1.00;;;;;;5071990;28;20500;-59
2022/01/20 07:19:09;;;;;;;9.77;2.67;;;4.10;1.00;;;;;;5071074;28;20450;-59
2022/01/20 07:21:34;;;;;;;6.97;2.57;;;4.10;16.00;;;;;;5070528;28;20411;-60
2022/01/20 07:24:00;;;;;;;4.00;2.37;;;4.10;29.00;;;;;;5071016;28;20202;-60
2022/01/20 07:26:26;;;;;;;5.87;2.70;;;;;;;;;;5070224;28;20288;-59
2022/01/20 07:28:52;;;;;;;8.67;2.60;;;3.90;99.90;;;;;;5054032;28;20201;-60
2022/01/20 07:31:22;;;;;;;3.23;1.00;;;;;;;;;;5070158;28;20458;-61
2022/01/20 07:33:49;;;;;;;15.63;1.50;;;2.30;91.50;;;;;;5072555;28;20222;-58
2022/01/20 07:36:21;;;;;;;2.80;0.73;;;2.10;91.40;;;;;;5069537;28;20420;-59
2022/01/20 07:38:47;;;;;;;2.77;1.20;;;;;;;;;;5070664;28;20448;-58
2022/01/20 07:41:13;;;;;;;4.57;2.20;;;2.40;99.90;;;;;;5071420;28;20445;-58
2022/01/20 07:43:39;;;;;;;4.67;1.20;;;2.40;94.80;;;;;;5054883;28;20933;-58
2022/01/20 07:46:05;;;;;;;4.00;1.20;;;2.30;90.60;;;;;;5057631;28;20457;-58
2022/01/20 07:48:31;;;;;;;3.70;1.20;;;;;;;;;;5086812;28;20440;-57
2022/01/20 07:50:57;;;;;;;0.90;0.50;;;2.60;74.90;;;;;;5078136;28;20673;-58
2022/01/20 07:53:23;;;;;;;1.77;1.00;;;2.60;65.90;;;;;;5069505;28;20474;-58
2022/01/20 07:55:48;;;;;;;2.87;0.77;;;2.50;63.70;;;;;;5070457;28;20648;-58
2022/01/20 07:58:14;;;;;;;5.60;1.80;;;;;;;;;;5071504;28;20261;-58
2022/01/20 08:00:40;;;;;;;4.37;0.90;;;2.60;59.60;;;;;;5059067;28;20187;-58
2022/01/20 08:03:06;;;;;;;2.20;1.00;;;2.70;40.60;;;;;;5071571;28;20445;-57
2022/01/20 08:05:31;;;;;;;2.83;0.77;;;2.70;34.10;;;;;;5071363;28;20194;-58
2022/01/20 08:07:57;;;;;;;1.60;0.83;;;;;;;;;;5072369;28;20239;-58
2022/01/20 08:10:23;;;;;;;1.90;1.10;;;;;;;;;;5086011;28;20175;-58
2022/01/20 08:12:49;;;;;;;4.30;1.60;;;;;;;;;;5075584;28;20453;-58
2022/01/20 08:15:15;;;;;;;7.90;1.17;;;3.10;1.00;;;;;;5073855;28;20442;-59
2022/01/20 08:17:42;;;;;;;3.70;1.53;;;;;;;;;;5075788;28;20442;-59
2022/01/20 08:20:09;;;;;;;1.43;1.13;;;3.10;1.00;;;;;;5085175;28;20220;-57
2022/01/20 08:22:35;;;;;;;3.53;1.07;;;;;;;;;;5061661;28;20455;-58
2022/01/20 08:25:12;;;;;;;7.30;1.20;;;3.10;1.00;;;;;;5081443;28;20983;-58
2022/01/20 08:27:38;;;;;;;3.77;1.13;;;;;;;;;;5093006;28;20530;-57
2022/01/20 08:30:06;;;;;;;7.23;1.10;;;;;;;;;;5075402;28;20795;-58
2022/01/20 08:32:31;;;;;;;3.43;1.13;;;;;;;;;;5074033;28;20437;-58
2022/01/20 08:34:57;;;;;;;8.70;1.20;;;;;;;;;;5072916;28;20796;-58
2022/01/20 08:37:25;;;;;;;7.03;1.60;;;;;;;;;;5084105;28;20446;-59
2022/01/20 08:39:51;;;;;;;4.63;1.17;;;;;;;;;;5087053;28;20442;-59
2022/01/20 08:42:17;;;;;;;3.20;1.30;;;;;;;;;;5072654;28;20502;-58
2022/01/20 08:44:43;;;;;;;7.93;2.10;;;;;;;;;;5082794;28;20445;-59
2022/01/20 08:47:16;;;;;;;5.60;1.97;;;;;;;;;;5068348;28;20943;-60
2022/01/20 08:49:42;;;;;;;4.70;1.70;;;3.20;1.00;;;;;;5075900;28;20453;-60
2022/01/20 08:52:08;;;;;;;9.13;2.27;;;;;;;;;;5075982;28;20438;-59
2022/01/20 08:54:34;;;;;;;10.43;2.27;;;;;;;;;;5079838;28;20871;-59
2022/01/20 08:57:00;;;;;;;8.07;1.87;;;;;;;;;;5073233;28;20442;-59
2022/01/20 08:59:26;;;;;;;8.17;1.70;;;3.00;1.00;;;;;;5072498;28;20434;-59
2022/01/20 09:01:52;;;;;;;1.87;1.10;;;2.90;1.00;;;;;;5072780;28;20971;-60
2022/01/20 09:04:18;;;;;;;7.50;1.73;;;;;;;;;;5075156;28;20544;-60
2022/01/20 09:06:44;;;;;;;7.80;1.10;;;2.70;1.00;;;;;;5085193;28;20220;-60
2022/01/20 09:09:09;;;;;;;3.13;1.13;;;2.70;1.00;;;;;;5063083;28;20451;-60
2022/01/20 09:11:38;;;;;;;6.50;2.03;;;;;;;;;;5080109;28;20183;-60
2022/01/20 09:16:49;;;;;;;6.03;1.57;;;3.00;1.00;;;;;;5087735;28;20437;-64
2022/01/20 09:19:16;;;;;;;4.13;1.67;;;3.10;1.00;;;;;;5078199;28;20472;-65
2022/01/20 09:21:42;;;;;;;5.03;1.60;;;;;;;;;;5080142;28;20744;-64
2022/01/20 09:24:08;;;;;;;8.00;1.30;;;3.20;1.00;;;;;;5081700;28;20934;-64
2022/01/20 09:26:34;;;;;;;6.63;1.60;;;3.20;1.00;;;;;;5078062;28;20531;-64
2022/01/20 09:29:00;;;;;;;3.83;1.77;;;3.60;1.00;;;;;;5091981;28;20212;-64
2022/01/20 09:31:27;;;;;;;5.70;1.17;;;3.60;1.00;;;;;;5092455;28;20203;-65
2022/01/20 09:33:54;;;;;;;3.13;1.50;;;3.60;1.00;;;;;;5091964;28;20485;-64
2022/01/20 09:36:21;;;;;;;6.37;1.87;;;3.50;1.00;;;;;;5088113;28;20534;-63
2022/01/20 09:38:47;;;;;;;8.93;2.07;;;3.40;1.00;;;;;;5063485;28;20445;-63
2022/01/20 09:41:12;;;;;;;5.00;1.83;;;3.40;1.00;;;;;;5077671;28;20798;-64
2022/01/20 09:43:38;;;;;;;3.80;1.50;;;3.40;1.00;;;;;;5076634;28;20206;-63
2022/01/20 09:46:04;;;;;;;3.60;1.80;;;3.40;1.00;;;;;;5072051;28;20215;-64
2022/01/20 09:48:32;;;;;;;6.23;1.53;;;3.40;1.00;;;;;;5088911;28;20175;-65
2022/01/20 09:51:00;;;;;;;6.17;1.50;;;3.40;1.00;;;;;;5072364;28;21000;-63
2022/01/20 09:53:28;;;;;;;9.67;1.73;;;3.40;1.00;;;;;;5089655;28;20443;-64
2022/01/20 09:55:55;;;;;;;4.10;1.30;;;;;;;;;;5080311;28;20442;-64
2022/01/20 09:58:20;;;;;;;5.97;2.23;;;3.50;1.00;;;;;;5085837;28;20448;-64
2022/01/20 10:00:47;;;;;;;7.00;2.20;;;3.50;1.00;;;;;;5071294;28;20455;-64
2022/01/20 10:03:15;;;;;;;8.80;1.43;;;3.50;1.00;;;;;;5073210;28;20518;-64
2022/01/20 10:05:50;;;;;;;8.23;2.03;;;3.70;1.00;;;;;;5071616;28;20444;-64
2022/01/20 10:08:23;;;;;;;3.43;2.40;;;3.60;1.00;;;;;;5081254;28;20438;-64
2022/01/20 10:10:50;;;;;;;6.10;2.00;;;3.60;1.00;;;;;;5073326;28;20470;-65
2022/01/20 10:13:19;;;;;;;11.90;2.37;;;3.60;1.00;;;;;;5091781;28;20666;-63
2022/01/20 10:15:54;;;;;;;5.90;2.70;;;3.40;1.00;;;;;;5091476;28;20440;-65
2022/01/20 10:18:20;;;;;;;6.77;2.10;;;3.60;1.00;;;;;;5091416;28;20486;-64
2022/01/20 10:20:57;;;;;;;5.43;2.23;;;3.60;1.00;;;;;;5091296;28;20435;-65
2022/01/20 10:23:34;;;;;;;8.10;2.20;;;3.40;1.00;;;;;;5076899;28;20196;-64
2022/01/20 10:26:07;;;;;;;10.00;2.33;;;3.40;1.00;;;;;;5070966;28;20508;-65
2022/01/20 10:29:00;;;;;;;6.17;2.10;;;3.50;1.00;;;;;;5070142;28;20441;-65
2022/01/20 10:31:40;;;;;;;7.73;2.03;;;3.60;1.00;;;;;;5070132;28;20524;-65
2022/01/20 10:34:30;;;;;;;6.23;1.80;;;3.70;1.00;;;;;;5070704;28;20437;-64
2022/01/20 10:37:03;;;;;;;15.80;2.43;;;3.80;1.00;;;;;;5070898;28;20483;-65
2022/01/20 10:39:37;;;;;;;6.53;2.07;;;4.00;1.00;;;;;;5070594;28;20564;-65
2022/01/20 10:42:12;;;;;;;11.33;2.20;;;4.10;1.00;;;;;;5074886;28;20568;-64
2022/01/20 10:44:50;;;;;;;9.83;1.50;;;4.10;1.00;;;;;;5070771;28;20449;-64
2022/01/20 10:47:31;;;;;;;5.47;2.50;;;4.20;1.00;;;;;;5069802;28;20972;-64
2022/01/20 10:50:15;;;;;;;7.63;2.17;;;4.40;1.00;;;;;;5070563;28;20427;-65
2022/01/20 10:52:44;;;;;;;3.10;1.70;;;4.30;1.00;;;;;;5070531;28;20803;-64
2022/01/20 10:55:32;;;;;;;9.40;2.33;;;4.30;1.00;;;;;;5070722;28;20503;-64
2022/01/20 10:58:10;;;;;;;7.90;1.93;;;4.40;1.00;;;;;;5082259;28;20435;-64
2022/01/20 11:00:45;;;;;;;4.33;1.63;;;4.20;1.00;;;;;;5070000;28;20474;-64
2022/01/20 11:03:11;;;;;;;13.03;3.40;;;4.30;1.00;;;;;;5070206;28;20443;-64
2022/01/20 11:05:38;;;;;;;4.97;1.30;;;4.30;1.00;;;;;;5052004;28;20936;-63
2022/01/20 11:08:04;;;;;;;6.63;1.90;;;4.40;1.00;;;;;;5071506;28;20615;-65
2022/01/20 11:10:30;;;;;;;6.37;2.17;;;4.60;1.00;;;;;;5069844;28;20738;-65
2022/01/20 11:12:56;;;;;;;9.53;2.73;;;4.60;1.00;;;;;;5069931;28;20439;-64
2022/01/20 11:15:23;;;;;;;4.43;1.67;;;4.50;1.00;;;;;;5069746;28;20623;-65
2022/01/20 11:17:54;;;;;;;6.90;2.00;;;4.30;1.00;;;;;;5070065;28;20435;-64
2022/01/20 11:20:21;;;;;;;8.83;2.33;;;4.30;1.00;;;;;;5079967;28;20442;-64
2022/01/20 11:22:52;;;;;;;7.00;2.00;;;4.10;1.00;;;;;;5090288;28;20767;-63
2022/01/20 11:25:21;;;;;;;5.63;1.93;;;3.90;1.00;;;;;;5089592;28;20460;-64
2022/01/20 11:27:49;;;;;;;9.43;2.20;;;4.00;1.00;;;;;;5085051;28;20566;-64
2022/01/20 11:30:26;;;;;;;9.10;2.00;;;3.90;1.00;;;;;;5052647;28;20445;-64
2022/01/20 11:33:10;;;;;;;7.17;2.17;;;3.80;1.00;;;;;;5069748;28;20439;-64
2022/01/20 11:35:50;;;;;;;10.50;2.10;;;3.90;1.00;;;;;;5069590;28;20466;-63
2022/01/20 11:38:21;;;;;;;9.57;2.60;;;4.00;1.00;;;;;;5069501;28;20865;-63
2022/01/20 11:40:58;;;;;;;5.57;2.33;;;4.00;1.00;;;;;;5069656;28;20492;-64
2022/01/20 11:43:37;;;;;;;5.20;2.03;;;3.90;1.00;;;;;;5069752;28;20876;-64
2022/01/20 11:46:15;;;;;;;10.20;2.63;;;4.00;1.00;;;;;;5069673;28;20449;-64
2022/01/20 11:49:01;;;;;;;7.73;2.10;;;4.10;1.00;;;;;;5069707;28;20438;-64
2022/01/20 11:51:43;;;;;;;8.03;1.93;;;4.10;1.00;;;;;;5070425;28;20457;-64
2022/01/20 11:54:11;;;;;;;9.97;2.30;;;4.20;1.00;;;;;;5069336;28;20458;-63
2022/01/20 11:56:42;;;;;;;4.50;1.90;;;4.20;1.00;;;;;;5070273;28;20445;-64
2022/01/20 11:59:14;;;;;;;10.47;1.97;;;4.00;1.00;;;;;;5072691;28;20451;-63
2022/01/20 12:01:47;;;;;;;5.37;1.97;;;4.00;1.00;;;;;;5073612;28;20533;-63
2022/01/20 12:04:13;;;;;;;9.70;2.50;;;3.90;1.00;;;;;;5073540;28;20474;-63
2022/01/20 12:06:45;;;;;;;8.23;1.63;;;4.00;1.00;;;;;;5073543;28;20510;-63
2022/01/20 12:09:13;;;;;;;10.70;2.70;;;4.10;1.00;;;;;;5073633;28;20434;-63
2022/01/20 12:11:47;;;;;;;9.03;2.27;;;4.20;1.00;;;;;;5073485;28;20443;-63
2022/01/20 12:14:24;;;;;;;8.13;2.03;;;4.30;1.00;;;;;;5073675;28;20432;-63
2022/01/20 12:16:50;;;;;;;7.90;2.73;;;4.20;1.00;;;;;;5073217;28;20487;-63
2022/01/20 12:19:15;;;;;;;16.03;2.00;;;4.30;1.00;;;;;;5074177;28;20943;-63
2022/01/20 12:21:48;;;;;;;5.33;1.57;;;4.20;1.00;;;;;;5068946;28;20176;-63
2022/01/20 12:24:14;;;;;;;8.40;2.63;;;;;;;;;;5073075;28;20249;-63
2022/01/20 12:26:39;;;;;;;6.53;1.60;;;4.20;1.00;;;;;;5077550;28;20780;-63
2022/01/20 12:29:07;;;;;;;6.83;2.07;;;4.10;1.00;;;;;;5080562;28;20970;-64
2022/01/20 12:31:45;;;;;;;9.17;1.90;;;4.20;1.00;;;;;;5085415;28;20185;-63
2022/01/20 12:34:12;;;;;;;7.33;1.60;;;4.20;1.00;;;;;;5093425;28;20437;-63
2022/01/20 12:36:39;;;;;;;8.60;1.57;;;;;;;;;;5080415;28;20449;-63
2022/01/20 12:39:05;;;;;;;7.83;2.20;;;4.40;1.00;;;;;;5069078;28;20943;-63
2022/01/20 12:41:31;;;;;;;5.30;1.80;;;;;;;;;;5093364;28;20449;-63
2022/01/20 12:44:05;;;;;;;4.30;1.37;;;4.30;1.00;;;;;;5086463;28;20436;-63
2022/01/20 12:46:49;;;;;;;6.77;2.37;;;4.40;1.00;;;;;;5091971;28;20466;-63
2022/01/20 12:49:17;;;;;;;10.47;2.13;;;4.30;1.00;;;;;;5074608;28;21016;-64
2022/01/20 12:51:44;;;;;;;8.97;2.33;;;4.40;1.00;;;;;;5075452;28;20818;-63
2022/01/20 12:54:16;;;;;;;4.93;2.20;;;4.40;1.00;;;;;;5073948;28;20771;-63
2022/01/20 12:56:44;;;;;;;7.00;1.73;;;4.40;1.00;;;;;;5058510;28;20464;-63
2022/01/20 12:59:11;;;;;;;3.40;1.90;;;4.50;1.00;;;;;;5076576;28;20462;-63
2022/01/20 13:01:42;;;;;;;11.73;1.90;;;4.50;1.00;;;;;;5075238;28;20412;-63
2022/01/20 13:04:09;;;;;;;11.23;2.10;;;4.60;1.00;;;;;;5074296;28;20618;-63
2022/01/20 13:06:38;;;;;;;7.93;2.00;;;4.70;1.00;;;;;;5086148;28;20852;-72
2022/01/20 13:09:07;;;;;;;4.77;2.10;;;4.60;1.00;;;;;;5077827;28;20435;-71
2022/01/20 13:11:45;;;;;;;7.23;2.13;;;4.70;1.00;;;;;;5080589;28;20948;-71
2022/01/20 13:14:12;;;;;;;7.40;2.10;;;4.80;1.00;;;;;;5092498;28;20443;-70
2022/01/20 13:16:50;;;;;;;5.97;1.83;;;4.50;1.00;;;;;;5082405;28;20437;-71
2022/01/20 13:19:15;;;;;;;6.87;1.87;;;4.40;1.00;;;;;;5065334;28;20441;-70
2022/01/20 13:21:45;;;;;;;17.77;2.50;;;;;;;;;;5065806;28;20570;-71
2022/01/20 13:24:12;;;;;;;11.43;2.07;;;4.50;1.00;;;;;;5085234;28;20192;-71
2022/01/20 13:26:48;;;;;;;6.97;2.23;;;4.50;1.00;;;;;;5064267;28;20598;-70
2022/01/20 13:29:15;;;;;;;10.13;2.43;;;4.40;1.00;;;;;;5061734;28;20506;-71
2022/01/20 13:31:57;;;;;;;7.43;2.00;;;4.30;1.00;;;;;;5065822;28;20508;-72
2022/01/20 13:34:23;;;;;;;5.60;2.13;;;4.30;1.00;;;;;;5082046;28;20921;-75
2022/01/20 13:36:52;;;;;;;11.07;2.00;;;4.30;1.00;;;;;;5085460;28;20531;-79
2022/01/20 13:39:48;;;;;;;7.23;1.67;;;4.30;1.00;;;;;;5075687;28;20841;-72
2022/01/20 13:45:13;;;;;;;7.33;1.50;;;4.50;1.00;;;;;;5082958;28;20434;-72
2022/01/20 13:47:56;;;;;;;6.53;2.43;;;;;;;;;;5083101;28;20963;-72
2022/01/20 13:50:34;;;;;;;6.77;2.13;;;4.40;1.00;;;;;;5093382;28;20799;-73
2022/01/20 13:53:01;;;;;;;6.63;2.10;;;;;;;;;;5088813;28;20440;-77
2022/01/20 13:55:32;;;;;;;4.73;1.30;;;4.50;1.00;;;;;;5086111;28;20453;-74
2022/01/20 13:58:00;;;;;;;9.53;2.50;;;4.50;1.00;;;;;;5086457;28;20443;-76
2022/01/20 14:00:31;;;;;;;8.33;2.63;;;4.40;1.00;;;;;;5091227;28;20495;-75
2022/01/20 14:02:57;;;;;;;7.97;2.40;;;4.50;1.00;;;;;;5085559;28;20435;-75
2022/01/20 14:05:28;;;;;;;4.27;1.50;;;4.50;1.00;;;;;;5081796;28;20435;-78
2022/01/20 14:07:55;;;;;;;8.40;1.87;;;;;;;;;;5079804;28;20466;-77
2022/01/20 14:10:20;;;;;;;5.60;1.67;;;4.20;1.00;;;;;;5080860;28;20440;-75
2022/01/20 14:12:46;;;;;;;6.10;1.63;;;4.00;1.00;;;;;;5091363;28;20715;-75
2022/01/20 14:15:13;;;;;;;4.20;1.70;;;4.00;1.00;;;;;;5081806;28;20175;-75
2022/01/20 14:17:39;;;;;;;8.20;2.20;;;4.00;1.00;;;;;;5074017;28;20434;-75
2022/01/20 14:20:10;;;;;;;6.27;2.27;;;3.90;1.00;;;;;;5068930;28;20545;-78
2022/01/20 14:22:36;;;;;;;7.20;2.07;;;;;;;;;;5083728;28;20442;-77
2022/01/20 14:25:03;;;;;;;7.47;1.80;;;3.70;1.00;;;;;;5056777;28;20567;-73
2022/01/20 14:27:30;;;;;;;13.77;3.50;;;3.70;1.00;;;;;;5066471;28;20480;-73
2022/01/20 14:29:56;;;;;;;4.73;1.50;;;3.60;1.00;;;;;;5062980;28;20436;-74
2022/01/20 14:32:22;;;;;;;8.87;2.87;;;;;;;;;;5066600;28;20492;-75